Flight Track Log - Related Links

Times and Time Zones

All times are in EST time to prevent confusion due to time zone crossing. See the SWA3213 flight status page for this flight to view local times or setup timezone preferences in your user account.

Time Position Orientation Groundspeed Altitude Reporting Facility
EST Latitude Longitude Course Direction KTS km/h feet Rate Location/Type
Fri 21:00:38 39.1667 -76.7333 180° South 176 327 2.000  Level Potomac TRACON
Fri 21:01:38 39.1167 -76.7333 180° South 273 505 4.800 2.068 Climbing Potomac TRACON
Fri 21:03:35 38.9964 -76.6333 147° Southeast 282 523 8.100 2.034 Climbing Washington Center
Fri 21:04:35 38.9219 -76.5628 144° Southeast 288 533 10.800 2.750 Climbing Washington Center
Fri 21:05:35 38.8264 -76.5322 166° South 331 613 13.600 1.650 Climbing Washington Center
Fri 21:06:35 38.7256 -76.6056 210° Southwest 343 636 14.100 1.850 Climbing Washington Center
Fri 21:07:35 38.6269 -76.6786 210° Southwest 378 700 17.300 2.800 Climbing Washington Center
Fri 21:08:35 38.5161 -76.7219 197° South 400 740 19.700 2.050 Climbing Washington Center
Fri 21:09:35 38.3850 -76.7017 173° South 437 810 21.400 1.950 Climbing Washington Center
Fri 21:10:35 38.2453 -76.6836 174° South 471 872 23.600 2.100 Climbing Washington Center
Fri 21:11:35 38.1039 -76.6658 174° South 500 925 25.600 1.850 Climbing Washington Center
Fri 21:12:35 37.9558 -76.6478 175° South 522 967 27.300 1.600 Climbing Washington Center
Fri 21:13:35 37.8056 -76.6642 185° South 534 990 28.800 1.800 Climbing Washington Center
Fri 21:14:35 37.6572 -76.6831 186° South 539 998 30.900 2.000 Climbing Washington Center
Fri 21:15:35 37.5089 -76.7019 186° South 539 998 32.800 1.934 Climbing Washington Center
Fri 21:16:36 37.3647 -76.7417 192° South 539 998 34.800 1.950 Climbing Washington Center
Fri 21:17:35 37.2306 -76.7969 198° South 525 972 36.700 1.613 Climbing Washington Center
Fri 21:18:35 37.1008 -76.8547 200° South 514 953 38.000 650 Climbing Washington Center
Fri 21:19:35 36.9728 -76.9100 199° South 501 929 38.000  Level Washington Center
Fri 21:20:35 36.8450 -76.9622 198° South 496 919 38.000  Level Washington Center
Fri 21:21:35 36.7131 -77.0144 198° South 496 919 38.000  Level Washington Center
Fri 21:22:35 36.5850 -77.0689 199° South 491 909 38.000  Level Washington Center
Fri 21:23:35 36.4592 -77.1208 198° South 486 900 38.000  Level Washington Center
Fri 21:24:35 36.3314 -77.1725 198° South 486 900 38.000  Level Washington Center
Fri 21:25:35 36.1992 -77.2239 197° South 486 900 38.000  Level Washington Center
Fri 21:26:35 36.0775 -77.2753 199° South 479 887 38.000  Level Washington Center
Fri 21:27:35 35.9472 -77.3289 198° South 479 887 38.000  Level Washington Center
Fri 21:28:35 35.8172 -77.3775 197° South 486 900 38.000  Level Washington Center
Fri 21:29:35 35.6872 -77.4308 198° South 486 900 38.000  Level Washington Center
Fri 21:30:35 35.5592 -77.4814 198° South 486 900 38.000  Level Washington Center
Fri 21:31:35 35.4289 -77.5319 198° South 486 900 38.000  Level Washington Center
Fri 21:32:35 35.3169 -77.6131 211° Southwest 478 885 38.000  Level Washington Center
Fri 21:33:35 35.2214 -77.7125 220° Southwest 461 855 38.000  Level Washington Center
Fri 21:34:35 35.1256 -77.8117 220° Southwest 456 845 38.000  Level Washington Center
Fri 21:35:35 35.0297 -77.9103 220° Southwest 456 845 38.000  Level Washington Center
Fri 21:36:35 34.9342 -78.0064 220° Southwest 456 845 38.000  Level Washington Center
Fri 21:37:35 34.8403 -78.1047 221° Southwest 461 855 38.000  Level Washington Center
Fri 21:38:35 34.7483 -78.2031 221° Southwest 456 845 38.000  Level Washington Center
Fri 21:40:12 34.5956 -78.3578 220° Southwest 444 822 38.000  Level Jacksonville Center
Fri 21:41:12 34.4947 -78.4539 218° Southwest 444 822 38.000  Level Jacksonville Center
Fri 21:42:12 34.4122 -78.5436 222° Southwest 439 813 38.000  Level Jacksonville Center
Fri 21:43:12 34.3156 -78.6389 219° Southwest 446 826 38.000  Level Jacksonville Center
Fri 21:44:12 34.2228 -78.7339 220° Southwest 446 826 38.000  Level Jacksonville Center
Fri 21:45:12 34.1297 -78.8261 219° Southwest 446 826 38.000  Level Jacksonville Center
Fri 21:46:12 34.0328 -78.9233 220° Southwest 446 826 38.000  Level Jacksonville Center
Fri 21:47:12 33.9375 -79.0153 219° Southwest 446 826 38.000  Level Jacksonville Center
Fri 21:48:12 33.8425 -79.1119 220° Southwest 446 826 38.000  Level Jacksonville Center
Fri 21:49:12 33.7492 -79.2033 219° Southwest 446 826 38.000  Level Jacksonville Center
Fri 21:50:12 33.6578 -79.2944 220° Southwest 440 814 38.000  Level Jacksonville Center
Fri 21:51:12 33.5625 -79.3906 220° Southwest 440 814 38.000  Level Jacksonville Center
Fri 21:52:12 33.4628 -79.4842 218° Southwest 445 824 38.000  Level Jacksonville Center
Fri 21:53:12 33.3672 -79.5775 219° Southwest 445 824 38.000  Level Jacksonville Center
Fri 21:54:12 33.2650 -79.6656 216° Southwest 450 834 38.000  Level Jacksonville Center
Fri 21:55:12 33.1586 -79.7514 214° Southwest 456 845 38.000  Level Jacksonville Center
Fri 21:56:12 33.0583 -79.8292 213° Southwest 456 845 38.000  Level Jacksonville Center
Fri 21:57:12 32.9519 -79.9144 214° Southwest 456 845 38.000  Level Jacksonville Center
Fri 21:58:12 32.8494 -79.9969 214° Southwest 456 845 38.000  Level Jacksonville Center
Fri 21:59:12 32.7367 -80.0872 214° Southwest 456 845 38.000  Level Jacksonville Center
Fri 22:00:12 32.6319 -80.1669 213° Southwest 456 845 38.000  Level Jacksonville Center
Fri 22:01:12 32.5292 -80.2464 213° Southwest 456 845 38.000  Level Jacksonville Center
Fri 22:02:12 32.4244 -80.3306 214° Southwest 456 845 38.000  Level Jacksonville Center
Fri 22:03:12 32.3239 -80.4094 214° Southwest 451 835 38.000  Level Jacksonville Center
Fri 22:04:12 32.2211 -80.4908 214° Southwest 445 824 38.000  Level Jacksonville Center
Fri 22:05:12 32.1244 -80.5694 215° Southwest 435 806 38.000  Level Jacksonville Center
Fri 22:06:12 32.0336 -80.6381 213° Southwest 434 803 38.000  Level Jacksonville Center
Fri 22:07:12 31.9478 -80.7428 226° Southwest 416 771 38.000  Level Jacksonville Center
Fri 22:08:12 31.8786 -80.8472 232° Southwest 409 758 38.000  Level Jacksonville Center
Fri 22:09:12 31.8089 -80.9344 227° Southwest 409 758 38.000  Level Jacksonville Center
Fri 22:10:12 31.6675 -80.9667 191° South 437 810 38.000  Level Jacksonville Center
Fri 22:11:12 31.5489 -80.9886 189° South 475 880 38.000  Level Jacksonville Center
Fri 22:12:12 31.4072 -81.0158 189° South 481 892 38.000  Level Jacksonville Center
Fri 22:13:12 31.2928 -81.0400 190° South 481 892 38.000  Level Jacksonville Center
Fri 22:14:12 31.1636 -81.0619 188° South 481 892 38.000  Level Jacksonville Center
Fri 22:15:12 31.0367 -81.0839 188° South 476 882 38.000  Level Jacksonville Center
Fri 22:16:12 30.9094 -81.1056 188° South 466 863 38.000 -450 Level Jacksonville Center
Fri 22:17:12 30.7867 -81.1272 189° South 461 855 37.100 -1.800 Descending Jacksonville Center
Fri 22:18:12 30.6639 -81.1514 190° South 461 855 34.400 -1.550 Descending Jacksonville Center
Fri 22:19:12 30.5281 -81.1539 181° South 471 872 34.000 -350 Descending Jacksonville Center
Fri 22:20:12 30.3944 -81.1489 178° South 477 884 33.700 -650 Descending Jacksonville Center
Fri 22:21:12 30.2567 -81.1419 178° South 482 893 32.700 -1.000 Descending Jacksonville Center
Fri 22:22:12 30.1189 -81.1397 179° South 487 901 31.700 -950 Descending Jacksonville Center
Fri 22:23:12 29.9831 -81.1372 179° South 493 912 30.800 -1.600 Descending Jacksonville Center
Fri 22:24:12 29.8453 -81.1325 178° South 493 912 28.500 -2.450 Descending Jacksonville Center
Fri 22:25:12 29.7136 -81.1278 178° South 487 901 25.900 -2.550 Descending Jacksonville Center
Fri 22:26:12 29.5861 -81.1231 178° South 475 880 23.400 -2.350 Descending Jacksonville Center
Fri 22:27:12 29.4608 -81.1253 181° South 461 855 21.200 -2.300 Descending Jacksonville Center
Fri 22:28:12 29.3356 -81.1156 176° South 456 845 18.800 -2.450 Descending Jacksonville Center
Fri 22:29:12 29.2122 -81.1058 176° South 456 845 16.300 -2.600 Descending Jacksonville Center
Fri 22:30:12 29.0933 -81.1008 178° South 451 835 13.600 -2.168 Descending Jacksonville Center
Fri 22:31:11 28.9783 -81.0864 174° South 433 801 12.000 -1.311 Descending Jacksonville Center
Fri 22:32:11 28.8739 -81.0883 181° South 404 748 11.000 -950 Descending Jacksonville Center
Fri 22:33:11 28.7742 -81.1089 190° South 379 702 10.100 -942 Descending Jacksonville Center
Fri 22:34:12 28.6908 -81.1269 191° South 344 637 9.100 -545 Descending Jacksonville Center
Fri 22:35:12 28.6097 -81.1450 191° South 316 586 9.000 -150 Descending Jacksonville Center
Fri 22:36:12 28.5347 -81.1606 190° South 292 541 8.800 -650 Descending Jacksonville Center
Fri 22:37:12 28.4681 -81.1733 190° South 272 504 7.700 -1.200 Descending Jacksonville Center
Fri 22:38:12 28.4017 -81.1889 192° South 251 465 6.400 -1.173 Descending Jacksonville Center
Fri 22:40:00 28.4294 -81.3090 180° South  Level Estimated
Fri 22:42:19 28.3333 -81.3000 336° Northwest 144 267 1.700  Level Orlando TRACON
Fri 22:44:12 28.3833 -81.3000 360° North 126 233 500 -637 Descending Orlando TRACON
Fri 22:46:00 28.4167 -81.3000 336° Northwest  Level FlightAware Approximate
Fri 22:47:00 28.4294 -81.3090 336° Northwest  Level Estimated
Fri 22:53:00 28.4294 -81.3090 336° Northwest  Level Estimated
Fri 22:54:00 28.4294 -81.3090 336° Northwest  Level Estimated
Fri 22:55:00 28.4294 -81.3090 336° Northwest  Level Estimated
Fri 22:56:00 28.4294 -81.3090 336° Northwest  Level Estimated

Login

Don't have an account? Register now (free) for customized features, flight alerts, and more!